Weather at İskenderun Naval Heliport

Public forecast

Using degrees Celsius for public forecast. Weather courtesy of forecast.io.

Closest aviation weather report (METAR) to İskenderun Naval Heliport

Closest report is Hatay Airport, 14.6 nm (27.1 km) SSE.

2024/05/29 23:50 (retrieved 14 minutes ago)

LTDA 292350Z 21012KT 9999 SCT040 20/17 Q1011 NOSIG

Closest aviation forecast (TAF) to İskenderun Naval Heliport

Forecast is more than 12 hours old.

Closest forecast is Aleppo International Airport, 56.2 nm (104.0 km) ESE.

2024/05/29 06:00 (retrieved 18 hours ago)

TAF OSAP 290436Z 2906/3006 33018KT CAVOK TEMPO 2910/2916 30012KT 9999 SCT030